Relevés horaires Koksijde (Belgique)


Relevés horaires à Koksijde - Lundi 22 Mai 2023
Heure UTC1 Température [°C] Vent [km/h] Hum. [%] Pres.4 [hPa] Visi. [Km] Nébu. [octa] Préc.5 [mm] Cond.
2m. Res. Ros. Dir.2 Vit. Moy. Raf.3
23:00 11.8 10.6 10.3 N 11.1 -- 20.4 91 1022.1(1.3/3h) 10 -- -- --
22:00 12.0 10.4 10.0 N 14.8 -- 22.2 88 1021.7(1.8/3h) 12 -- -- --
21:00 12.3 10.8 9.7 N 14.8 -- 20.4 84 1021.3(1.7/3h) 8 8/8 -- --
20:00 12.3 11.5 10.2 N 9.3 -- 16.7 87 1020.7(1.5/3h) 8 8/8 -- --
19:00 12.6 11.6 10.6 NNO 11.1 -- 18.5 88 1020(0.8/3h) 7 7/8 -- --
18:00 12.8 11.6 10.9 NNO 13.0 -- 20.4 88 1019.6(0.7/3h) 11 -- -- --
17:00 12.8 11.8 11.0 NNO 11.1 -- 14.8 89 1019.2(0.3/3h) 7 8/8 -- --
16:00 13.0 12.3 11.1 NNO 9.3 -- 14.8 88 1019.1(0.5/3h) 7 8/8 -- --
15:00 13.0 12.3 11.0 NNO 9.3 -- 20.4 88 1018.7(0.1/3h) 7 8/8 -- --
14:00 12.8 11.6 10.6 NNO 13.0 -- 18.5 86 1018.8(0.3/3h) 8 8/8 -- --
13:00 13.9 13.1 11.0 NNO 11.1 -- 20.4 83 1018.6(0.0/3h) 12 8/8 -- --
12:00 13.5 12.4 10.4 NNO 13.0 -- 18.5 82 1018.7(0.1/3h) 12 8/8 -- --
11:00 13.2 12.3 10.7 NO 11.1 -- 16.7 85 1018.5(0.3/3h) 10 8/8 -- --
10:00 12.8 11.8 10.5 NNO 11.1 -- 16.7 86 1018.5(0.8/3h) 10 8/8 -- --
08:00 12.9 12.2 10.7 NO 9.3 -- 14.8 86 1018.2(1.0/3h) 10 8/8 -- --
07:00 12.6 11.8 10.6 NO 9.3 -- 14.8 88 1017.7(0.5/3h) 13 -- -- --
06:00 12.3 11.8 10.7 NO 7.4 -- 13.0 90 1017.3(0.0/3h) 8 8/8 -- --
05:00 12.1 11.6 10.5 NNO 7.4 -- 13.0 90 1017.2(-0.4/3h) 8 8/8 -- --
04:00 11.8 11.2 10.5 NNO 7.4 -- 11.1 92 1017.2(-0.8/3h) 10 -- -- --
03:00 11.6 11 10.3 NNO 7.4 -- 13.0 92 1017.5(-0.8/3h) 10 -- -- --
02:00 11.8 11.2 10.2 N 7.4 -- 13.0 90 1017.6(-0.8/3h) 11 -- -- --
01:00 11.8 11.2 10.0 N 7.4 -- 13.0 89 1018(-0.5/3h) 14 -- -- --
00:00 11.8 11.2 10.1 N 7.4 -- 16.7 89 1018.2(-0.3/3h) 14 -- -- --

1 Coordinated Universal Time. Actuellement il est 16:00 locale et 14:00 UTC.

2 Le vent souffle depuis la direction indiquée vers la direction oposée.

3 Les rafales max. sont disponible 40 min après l'heure du relevé.

4 Pour les stations d'altitude (plus de 600m) le géopotentiel du niveau le plus proche de la pression obligatoire est indiqué.

5 Les stations disposant d'un diffuseur peuvent indiquer "trace". Cela signifie que des précipitations ont touchés le sol mais que la quantité est inférieure à 0.1 mm.

Récapitulatif de la journée
Température [°C] Vent [km/h] Ensoleillement4 [h] Precipitations totale5 [mm] Pression [Hpa]
Min1 Max.2 Moy.3 Max. Min Max.
11.6 14.2 0 22.2 0 h 0 min 0 1017.2 1022.1

1 Température minimale relevée entre 18:00 UTC la veille et 18:00 UTC le jour donné.

2 Température maximale relevée entre 06:00 UTC le jour donné et 06:00 UTC le lendemain.

3 Vent moyen de la journée basé sur les relevés horaires.

4 Ensoleillement en heures relevé entre 06:00 UTC la veille et 06:00 UTC le jour donné.

5 Précipitations totales tombées entre 06:00 UTC la jour donné et 06:00 UTC le lendemain.

Graphiques horaires